Flight Track Log - Related Links

Times and Time Zones

All times are in EDT time to prevent confusion due to time zone crossing. See the AAL1326 flight status page for this flight to view local times or setup timezone preferences in your user account.

Time Position Orientation Groundspeed Altitude Reporting Facility
EDT Latitude Longitude Course Direction KTS MPH feet Rate Location/Type
Thu 09:48:48 AM 36.1781 -95.8836 60° Northeast 164 189 1,500  Level Kansas City Center
Thu 09:50:12 AM 36.1564 -95.8194 113° Southeast 262 302 3,600 2,358 Climbing Kansas City Center
Thu 09:51:00 AM 36.4455 -95.5857 58° Northeast  Level Estimated
Thu 09:52:00 AM 36.5277 -95.4845 90° East  Level Estimated
Thu 09:53:00 AM 36.6098 -95.3831 58° Northeast  Level Estimated
Thu 09:54:00 AM 36.6918 -95.2815 60° Northeast  Level Estimated
Thu 09:55:30 AM 36.4150 -95.3220 113° Southeast 380 437 17,300  Level FlightAware ADS-B
Thu 09:56:19 AM 36.4580 -95.2350 58° Northeast 383 441 18,500 2,424 Climbing FlightAware ADS-B
Thu 09:57:09 AM 36.5120 -95.1240 59° Northeast 413 475 21,300 2,721 Climbing FlightAware ADS-B
Thu 09:57:45 AM 36.5430 -95.0600 59° Northeast 422 486 22,400 2,027 Climbing FlightAware ADS-B
Thu 09:58:23 AM 36.5870 -94.9690 59° Northeast 437 503 23,800 2,132 Climbing FlightAware ADS-B
Thu 09:59:01 AM 36.6270 -94.8860 59° Northeast 447 514 25,100 1,917 Climbing FlightAware ADS-B
Thu 09:59:35 AM 36.6630 -94.8100 59° Northeast 456 525 26,100 1,775 Climbing FlightAware ADS-B
Thu 10:00:12 AM 36.7020 -94.7290 59° Northeast 464 534 27,200 1,676 Climbing FlightAware ADS-B
Thu 10:00:43 AM 36.7370 -94.6560 59° Northeast 470 541 28,000 1,662 Climbing FlightAware ADS-B
Thu 10:01:17 AM 36.7780 -94.5740 58° Northeast 477 549 29,000 1,562 Climbing FlightAware ADS-B
Thu 10:01:56 AM 36.8350 -94.4970 47° Northeast 480 552 29,900 1,378 Climbing FlightAware ADS-B
Thu 10:02:31 AM 36.8940 -94.4310 42° Northeast 486 559 30,700 1,391 Climbing FlightAware ADS-B
Thu 10:03:05 AM 36.9520 -94.3650 42° Northeast 492 566 31,500 1,629 Climbing FlightAware ADS-B
Thu 10:03:41 AM 37.0120 -94.2980 42° Northeast 491 565 32,600 1,676 Climbing FlightAware ADS-B
Thu 10:04:13 AM 37.0650 -94.2370 43° Northeast 491 565 33,400 1,457 Climbing FlightAware ADS-B
Thu 10:04:51 AM 37.1310 -94.1630 42° Northeast 492 566 34,300 1,333 Climbing FlightAware ADS-B
Thu 10:05:25 AM 37.1880 -94.0980 42° Northeast 493 567 35,000 600 Climbing FlightAware ADS-B
Thu 10:06:01 AM 37.2480 -94.0290 42° Northeast 493 567 35,000  Level FlightAware ADS-B
Thu 10:06:37 AM 37.3080 -93.9610 42° Northeast 491 565 35,000  Level FlightAware ADS-B
Thu 10:07:11 AM 37.3650 -93.8960 42° Northeast 491 565 35,000  Level FlightAware ADS-B
Thu 10:07:45 AM 37.4230 -93.8280 43° Northeast 490 564 35,000  Level FlightAware ADS-B
Thu 10:08:19 AM 37.4780 -93.7650 42° Northeast 490 564 35,000  Level FlightAware ADS-B
Thu 10:08:54 AM 37.5370 -93.6970 42° Northeast 489 563 35,000  Level FlightAware ADS-B
Thu 10:09:31 AM 37.5990 -93.6260 42° Northeast 489 563 35,000  Level FlightAware ADS-B
Thu 10:10:03 AM 37.6530 -93.5630 43° Northeast 488 562 35,000  Level FlightAware ADS-B
Thu 10:10:43 AM 37.7180 -93.4880 42° Northeast 488 562 35,000  Level FlightAware ADS-B
Thu 10:11:33 AM 37.7940 -93.4010 42° Northeast 488 562 35,000  Level FlightAware ADS-B
Thu 10:12:04 AM 37.8510 -93.3330 43° Northeast 488 562 35,000  Level FlightAware ADS-B
Thu 10:12:35 AM 37.9020 -93.2740 42° Northeast 487 560 35,000  Level FlightAware ADS-B
Thu 10:13:15 AM 37.9690 -93.1950 43° Northeast 487 560 35,000  Level FlightAware ADS-B
Thu 10:13:49 AM 38.0260 -93.1280 43° Northeast 486 559 35,000  Level FlightAware ADS-B
Thu 10:14:23 AM 38.0830 -93.0610 43° Northeast 486 559 35,000  Level FlightAware ADS-B
Thu 10:14:57 AM 38.1380 -92.9960 43° Northeast 485 558 35,000  Level FlightAware ADS-B
Thu 10:15:33 AM 38.1960 -92.9280 43° Northeast 484 557 35,000  Level FlightAware ADS-B
Thu 10:16:03 AM 38.2450 -92.8690 43° Northeast 484 557 35,000  Level FlightAware ADS-B
Thu 10:16:44 AM 38.3110 -92.7910 43° Northeast 483 556 35,000  Level FlightAware ADS-B
Thu 10:17:19 AM 38.3700 -92.7200 43° Northeast 483 556 35,000  Level FlightAware ADS-B
Thu 10:17:56 AM 38.4300 -92.6490 43° Northeast 483 556 35,000  Level FlightAware ADS-B
Thu 10:18:30 AM 38.4870 -92.5800 43° Northeast 483 556 35,000  Level FlightAware ADS-B
Thu 10:19:02 AM 38.5380 -92.5190 43° Northeast 481 554 35,000  Level FlightAware ADS-B
Thu 10:19:41 AM 38.6020 -92.4430 43° Northeast 481 554 35,000  Level FlightAware ADS-B
Thu 10:20:12 AM 38.6440 -92.3930 43° Northeast 480 552 35,000  Level FlightAware ADS-B
Thu 10:20:50 AM 38.7140 -92.3080 43° Northeast 479 551 35,000  Level FlightAware ADS-B
Thu 10:21:23 AM 38.7660 -92.2440 44° Northeast 479 551 35,000  Level FlightAware ADS-B
Thu 10:22:00 AM 38.8260 -92.1720 43° Northeast 479 551 35,000  Level FlightAware ADS-B
Thu 10:22:33 AM 38.8790 -92.1080 43° Northeast 479 551 35,000  Level FlightAware ADS-B
Thu 10:23:08 AM 38.9330 -92.0410 44° Northeast 478 550 35,000  Level FlightAware ADS-B
Thu 10:23:45 AM 38.9940 -91.9670 43° Northeast 477 549 35,000  Level FlightAware ADS-B
Thu 10:24:20 AM 39.0500 -91.8990 43° Northeast 477 549 35,000  Level FlightAware ADS-B
Thu 10:24:54 AM 39.1040 -91.8320 44° Northeast 476 548 35,000  Level FlightAware ADS-B
Thu 10:25:32 AM 39.1640 -91.7580 44° Northeast 476 548 35,000  Level FlightAware ADS-B
Thu 10:26:04 AM 39.2150 -91.6960 43° Northeast 475 547 35,000  Level FlightAware ADS-B
Thu 10:26:40 AM 39.2740 -91.6230 44° Northeast 475 547 35,000  Level FlightAware ADS-B
Thu 10:27:17 AM 39.3320 -91.5510 44° Northeast 474 545 35,000  Level FlightAware ADS-B
Thu 10:27:50 AM 39.3820 -91.4880 44° Northeast 475 547 35,000  Level FlightAware ADS-B
Thu 10:28:23 AM 39.4350 -91.4230 43° Northeast 474 545 35,000  Level FlightAware ADS-B
Thu 10:29:01 AM 39.4990 -91.3560 39° Northeast 472 543 35,000  Level FlightAware ADS-B
Thu 10:29:38 AM 39.5610 -91.2920 39° Northeast 471 542 35,000  Level FlightAware ADS-B
Thu 10:30:17 AM 39.6280 -91.2230 38° Northeast 471 542 35,000  Level FlightAware ADS-B
Thu 10:30:53 AM 39.6900 -91.1590 38° Northeast 471 542 35,000  Level FlightAware ADS-B
Thu 10:31:26 AM 39.7470 -91.1000 39° Northeast 470 541 35,000  Level FlightAware ADS-B
Thu 10:32:01 AM 39.8050 -91.0400 38° Northeast 471 542 35,000  Level FlightAware ADS-B
Thu 10:32:35 AM 39.8630 -90.9790 39° Northeast 471 542 35,000  Level FlightAware ADS-B
Thu 10:33:10 AM 39.9240 -90.9150 39° Northeast 471 542 35,000  Level FlightAware ADS-B
Thu 10:33:47 AM 39.9830 -90.8520 39° Northeast 470 541 35,000  Level FlightAware ADS-B
Thu 10:34:21 AM 40.0430 -90.7900 38° Northeast 469 540 35,000  Level FlightAware ADS-B
Thu 10:34:53 AM 40.0960 -90.7340 39° Northeast 469 540 35,000  Level FlightAware ADS-B
Thu 10:35:27 AM 40.1550 -90.6720 39° Northeast 469 540 35,000 -740 Level FlightAware ADS-B
Thu 10:36:06 AM 40.2190 -90.6040 39° Northeast 468 539 34,100 -1,622 Descending FlightAware ADS-B
Thu 10:36:41 AM 40.2770 -90.5420 39° Northeast 469 540 33,000 -917 Descending FlightAware ADS-B
Thu 10:37:18 AM 40.3340 -90.4660 45° Northeast 476 548 33,000  Level FlightAware ADS-B
Thu 10:37:50 AM 40.3820 -90.3960 48° Northeast 475 547 33,000  Level FlightAware ADS-B
Thu 10:38:25 AM 40.4330 -90.3220 48° Northeast 474 545 33,000  Level FlightAware ADS-B
Thu 10:39:00 AM 40.4840 -90.2470 48° Northeast 473 544 33,000 -405 Level FlightAware ADS-B
Thu 10:39:39 AM 40.5410 -90.1640 48° Northeast 470 541 32,500 -1,268 Descending FlightAware ADS-B
Thu 10:40:11 AM 40.5850 -90.1000 48° Northeast 465 535 31,500 -1,913 Descending FlightAware ADS-B
Thu 10:40:48 AM 40.6410 -90.0170 48° Northeast 468 539 30,300 -2,000 Descending FlightAware ADS-B
Thu 10:41:23 AM 40.6930 -89.9410 48° Northeast 472 543 29,100 -1,909 Descending FlightAware ADS-B
Thu 10:41:54 AM 40.7370 -89.8760 48° Northeast 476 548 28,200 -1,791 Descending FlightAware ADS-B
Thu 10:42:30 AM 40.7880 -89.7940 51° Northeast 494 568 27,100 -1,890 Descending FlightAware ADS-B
Thu 10:43:07 AM 40.8430 -89.7070 50° Northeast 488 562 25,900 -1,944 Descending FlightAware ADS-B
Thu 10:43:41 AM 40.8910 -89.6290 51° Northeast 481 554 24,800 -1,521 Descending FlightAware ADS-B
Thu 10:44:18 AM 40.9440 -89.5450 50° Northeast 473 544 24,100 -667 Descending FlightAware ADS-B
Thu 10:44:53 AM 40.9880 -89.4740 51° Northeast 444 511 24,000 -845 Descending FlightAware ADS-B
Thu 10:45:29 AM 41.0340 -89.4010 50° Northeast 433 498 23,100 -1,433 Descending FlightAware ADS-B
Thu 10:46:00 AM 41.0760 -89.3330 51° Northeast 424 488 22,400 -2,091 Descending FlightAware ADS-B
Thu 10:46:35 AM 41.1170 -89.2660 51° Northeast 426 490 20,800 -2,535 Descending FlightAware ADS-B
Thu 10:47:11 AM 41.1630 -89.1920 50° Northeast 409 471 19,400 -2,583 Descending FlightAware ADS-B
Thu 10:47:47 AM 41.2040 -89.1260 50° Northeast 403 464 17,700 -2,750 Descending FlightAware ADS-B
Thu 10:48:23 AM 41.2490 -89.0540 50° Northeast 398 458 16,100 -2,348 Descending FlightAware ADS-B
Thu 10:48:56 AM 41.2850 -88.9940 51° Northeast 386 444 15,000 -2,261 Descending FlightAware ADS-B
Thu 10:49:32 AM 41.3260 -88.9270 51° Northeast 380 437 13,500 -2,417 Descending FlightAware ADS-B
Thu 10:50:08 AM 41.3650 -88.8640 50° Northeast 371 427 12,100 -2,229 Descending FlightAware ADS-B
Thu 10:50:42 AM 41.4010 -88.8040 51° Northeast 365 420 10,900 -1,219 Descending FlightAware ADS-B
Thu 10:51:12 AM 41.4330 -88.7520 51° Northeast 361 415 10,800 -90 Descending FlightAware ADS-B
Thu 10:51:49 AM 41.4730 -88.6860 51° Northeast 360 414 10,800  Level FlightAware ADS-B
Thu 10:52:26 AM 41.5110 -88.6230 51° Northeast 362 417 10,800  Level FlightAware ADS-B
Thu 10:53:03 AM 41.5500 -88.5590 51° Northeast 361 415 10,800  Level FlightAware ADS-B
Thu 10:53:35 AM 41.5840 -88.5030 51° Northeast 360 414 10,800  Level FlightAware ADS-B
Thu 10:54:12 AM 41.6230 -88.4390 51° Northeast 362 417 10,800  Level FlightAware ADS-B
Thu 10:54:47 AM 41.6600 -88.3780 51° Northeast 362 417 10,800  Level FlightAware ADS-B
Thu 10:55:21 AM 41.6950 -88.3190 52° Northeast 361 415 10,800 -85 Level FlightAware ADS-B
Thu 10:55:58 AM 41.7340 -88.2530 52° Northeast 361 415 10,700 -909 Descending FlightAware ADS-B
Thu 10:56:27 AM 41.7620 -88.2040 53° Northeast 351 404 9,800 -1,174 Descending FlightAware ADS-B
Thu 10:56:44 AM 41.7790 -88.1760 51° Northeast 323 372 9,800 -150 Level FlightAware ADS-B
Thu 10:57:07 AM 41.7990 -88.1420 52° Northeast 292 336 9,700 -1,116 Descending FlightAware ADS-B
Thu 10:57:27 AM 41.8160 -88.1120 53° Northeast 295 339 9,000 -1,946 Descending FlightAware ADS-B
Thu 10:57:44 AM 41.8290 -88.0890 53° Northeast 295 339 8,500 -2,108 Descending FlightAware ADS-B
Thu 10:58:04 AM 41.8450 -88.0590 54° Northeast 297 342 7,700 -1,846 Descending FlightAware ADS-B
Thu 10:58:23 AM 41.8610 -88.0300 53° Northeast 292 336 7,300 -1,231 Descending FlightAware ADS-B
Thu 10:58:43 AM 41.8770 -88.0010 53° Northeast 285 328 6,900 -1,034 Descending FlightAware ADS-B
Thu 10:58:52 AM 41.8820 -87.9870 64° Northeast 281 323 6,800 -375 Descending FlightAware ADS-B
Thu 10:58:59 AM 41.8840 -87.9750 77° East 279 321 6,800  Level FlightAware ADS-B
Thu 10:59:07 AM 41.8840 -87.9610 90° East 277 319 6,800  Level FlightAware ADS-B
Thu 10:59:31 AM 41.8840 -87.9220 90° East 261 300 6,800  Level FlightAware ADS-B
Thu 10:59:48 AM 41.8840 -87.9000 90° East 247 284 6,800  Level FlightAware ADS-B
Thu 11:00:08 AM 41.8840 -87.8650 90° East 239 275 6,800  Level FlightAware ADS-B
Thu 11:00:27 AM 41.8840 -87.8370 90° East 236 272 6,800 -293 Level FlightAware ADS-B
Thu 11:00:49 AM 41.8840 -87.8050 90° East 234 269 6,600 -1,067 Descending FlightAware ADS-B
Thu 11:01:12 AM 41.8850 -87.7720 88° East 229 264 6,000 -1,532 Descending FlightAware ADS-B
Thu 11:01:36 AM 41.8850 -87.7400 90° East 227 261 5,400 -1,750 Descending FlightAware ADS-B
Thu 11:02:00 AM 41.8860 -87.7040 88° East 235 270 4,600 -1,800 Descending FlightAware ADS-B
Thu 11:02:06 AM 41.8880 -87.6970 69° East 235 270 4,500 -1,385 Descending FlightAware ADS-B
Thu 11:02:13 AM 41.8930 -87.6880 53° Northeast 234 269 4,300 -1,500 Descending FlightAware ADS-B
Thu 11:02:22 AM 41.9000 -87.6800 40° Northeast 230 265 4,100 -1,059 Descending FlightAware ADS-B
Thu 11:02:30 AM 41.9080 -87.6760 20° North 227 261 4,000 -800 Descending FlightAware ADS-B
Thu 11:02:37 AM 41.9150 -87.6750 North 223 257 3,900 -444 Descending FlightAware ADS-B
Thu 11:02:57 AM 41.9350 -87.6760 358° North 221 254 3,800 -214 Descending FlightAware ADS-B
Thu 11:03:05 AM 41.9440 -87.6790 346° North 221 254 3,800  Level FlightAware ADS-B
Thu 11:03:09 AM 41.9480 -87.6810 340° North 222 255 3,800  Level FlightAware ADS-B
Thu 11:03:15 AM 41.9520 -87.6850 323° Northwest 223 257 3,800  Level FlightAware ADS-B
Thu 11:03:26 AM 41.9590 -87.6960 311° West 225 259 3,800  Level FlightAware ADS-B
Thu 11:03:34 AM 41.9630 -87.7060 298° West 226 260 3,800 -444 Level FlightAware ADS-B
Thu 11:03:53 AM 41.9730 -87.7310 298° West 224 258 3,600 -1,317 Descending FlightAware ADS-B
Thu 11:04:15 AM 41.9810 -87.7570 292° West 216 249 2,900 -1,610 Descending FlightAware ADS-B
Thu 11:04:34 AM 41.9820 -87.7820 273° West 200 230 2,500 -1,350 Descending FlightAware ADS-B
Thu 11:04:55 AM 41.9830 -87.8080 273° West 184 212 2,000 -1,385 Descending FlightAware ADS-B
Thu 11:05:13 AM 41.9840 -87.8280 274° West 173 199 1,600 -1,317 Descending FlightAware ADS-B
Thu 11:05:36 AM 41.9840 -87.8490 270° West 163 188 1,100 -1,277 Descending FlightAware ADS-B
Thu 11:06:00 AM 41.9840 -87.8740 270° West 146 168 600 -947 Descending FlightAware ADS-B
Thu 11:06:14 AM 41.9840 -87.8870 270° West 150 173 500 -429 Descending FlightAware ADS-B
Thu 11:06:43 AM 41.9840 -87.9080 270° West 80 92 -1,034 Descending FlightAware ADS-B

Login

Don't have an account? Register now (free) for customized features, flight alerts, and more!